Time;durP1;ratioP1;P1;durP2;ratioP2;P2;SDS_P1;SDS_P2;PMS_P1;PMS_P2;Temp;Humidity;BMP_temperature;BMP_pressure;BME280_temperature;BME280_humidity;BME280_pressure;Samples;Min_cycle;Max_cycle;Signal;HPM_P1;HPM_P2
2024/02/14 00:00:13;;;;;;;15.70;7.90;;;;;;;5.46;77.30;100512.27;102581;1273;137938;-83
2024/02/14 00:03:01;;;;;;;14.70;8.50;;;;;;;5.43;77.42;100515.05;102452;1270;109072;-83
2024/02/14 00:05:28;;;;;;;14.50;7.60;;;;;;;5.39;77.38;100520.43;102225;1270;140410;-83
2024/02/14 00:07:56;;;;;;;15.30;8.20;;;;;;;5.34;77.43;100522.34;102329;1274;107988;-83
2024/02/14 00:10:23;;;;;;;13.90;7.50;;;;;;;5.30;77.71;100526.34;102324;1270;99281;-83
2024/02/14 00:12:51;;;;;;;13.90;7.20;;;;;;;5.29;78.00;100524.96;102191;1273;140172;-83
2024/02/14 00:15:18;;;;;;;14.40;7.10;;;;;;;5.29;77.74;100529.45;102337;1270;107882;-83
2024/02/14 00:17:45;;;;;;;16.50;7.60;;;;;;;5.31;78.18;100533.75;102394;1274;138681;-84
2024/02/14 00:20:14;;;;;;;12.60;7.40;;;;;;;5.34;78.14;100538.55;102423;1272;106634;-84
2024/02/14 00:22:41;;;;;;;15.80;8.40;;;;;;;5.35;78.09;100539.05;102328;1270;99089;-83
2024/02/14 00:25:11;;;;;;;13.30;8.20;;;;;;;5.36;78.30;100536.98;102221;1270;138348;-82
2024/02/14 00:27:38;;;;;;;13.70;8.00;;;;;;;5.39;78.35;100541.46;102699;1272;107906;-83
2024/02/14 00:30:06;;;;;;;16.40;8.00;;;;;;;5.39;78.26;100544.74;102194;1270;138180;-83
2024/02/14 00:32:33;;;;;;;16.60;7.70;;;;;;;5.38;78.40;100544.04;103542;1270;107997;-84
2024/02/14 00:35:01;;;;;;;13.50;7.80;;;;;;;5.40;78.50;100545.08;102665;1273;99166;-84
2024/02/14 00:37:29;;;;;;;13.20;7.80;;;;;;;5.47;78.61;100545.38;102261;1273;139183;-84
2024/02/14 00:39:57;;;;;;;15.20;8.70;;;;;;;5.53;78.71;100545.16;102269;1270;107074;-84
2024/02/14 00:42:25;;;;;;;13.60;8.00;;;;;;;5.59;78.62;100549.45;102239;1269;138389;-83
2024/02/14 00:44:52;;;;;;;19.10;9.30;;;;;;;5.62;78.53;100546.99;102298;1270;106932;-84
2024/02/14 00:47:19;;;;;;;16.50;8.90;;;;;;;5.69;78.59;100546.41;102245;1270;138505;-84
2024/02/14 00:49:46;;;;;;;16.60;9.60;;;;;;;5.67;78.38;100544.02;102353;1270;112054;-84
2024/02/14 00:52:14;;;;;;;16.30;9.00;;;;;;;5.67;78.35;100546.27;102347;1270;107863;-84
2024/02/14 00:54:41;;;;;;;18.70;9.40;;;;;;;5.64;78.18;100547.49;102549;1269;138005;-84
2024/02/14 00:57:08;;;;;;;15.80;8.90;;;;;;;5.59;78.45;100542.72;102348;1270;108635;-84
2024/02/14 00:59:35;;;;;;;15.80;8.60;;;;;;;5.56;78.46;100543.07;102280;1269;137941;-84
2024/02/14 01:02:02;;;;;;;18.50;9.00;;;;;;;5.53;78.33;100543.44;102368;1270;111948;-83
2024/02/14 01:04:29;;;;;;;15.40;8.70;;;;;;;5.51;78.56;100550.00;102380;1270;107319;-83
2024/02/14 01:06:58;;;;;;;16.30;9.00;;;;;;;5.52;78.56;100547.58;102358;1270;138608;-83
2024/02/14 01:09:24;;;;;;;16.70;9.40;;;;;;;5.53;78.72;100549.81;102819;1270;107232;-83
2024/02/14 01:11:51;;;;;;;21.40;10.10;;;;;;;5.54;78.98;100552.39;102544;1269;138707;-84
2024/02/14 01:14:19;;;;;;;15.00;9.60;;;;;;;5.55;78.76;100555.48;102455;1273;112437;-83
2024/02/14 01:16:47;;;;;;;15.90;10.50;;;;;;;5.52;78.88;100557.58;102365;1270;107441;-84
2024/02/14 01:19:14;;;;;;;18.50;10.80;;;;;;;5.46;78.80;100556.94;102448;1270;138755;-83
2024/02/14 01:21:42;;;;;;;18.70;10.90;;;;;;;5.43;78.71;100560.08;101767;1269;1002712;-84
2024/02/14 01:24:09;;;;;;;18.50;10.50;;;;;;;5.36;78.70;100559.91;102281;1270;138438;-84
2024/02/14 01:26:37;;;;;;;21.10;10.10;;;;;;;5.29;79.11;100558.93;102389;1269;112281;-83
2024/02/14 01:29:05;;;;;;;17.50;9.60;;;;;;;5.23;79.09;100555.70;102414;1270;108410;-84
2024/02/14 01:31:34;;;;;;;16.30;9.60;;;;;;;5.17;79.39;100555.02;102759;1269;139540;-83
2024/02/14 01:34:02;;;;;;;20.50;9.40;;;;;;;5.12;79.36;100556.95;102364;1273;107340;-83
2024/02/14 01:36:30;;;;;;;17.00;9.80;;;;;;;5.10;79.50;100556.63;101750;1269;1003841;-83
2024/02/14 01:38:57;;;;;;;20.30;10.40;;;;;;;5.08;79.73;100556.12;102375;1270;113992;-82
2024/02/14 01:41:23;;;;;;;16.00;9.40;;;;;;;5.05;79.91;100554.23;102208;1270;138573;-82
2024/02/14 01:43:52;;;;;;;17.10;10.70;;;;;;;5.02;79.75;100554.77;102451;1273;99047;-83
2024/02/14 01:46:19;;;;;;;17.80;10.70;;;;;;;4.97;80.06;100555.81;102418;1270;107652;-83
2024/02/14 01:48:49;;;;;;;16.20;10.00;;;;;;;4.90;80.21;100556.20;102281;1270;138309;-82
2024/02/14 01:51:21;;;;;;;16.20;9.90;;;;;;;4.81;80.35;100560.70;102374;1270;111058;-84
2024/02/14 01:53:48;;;;;;;17.00;9.50;;;;;;;4.71;80.37;100557.13;102292;1270;139394;-82
2024/02/14 01:56:15;;;;;;;16.00;9.20;;;;;;;4.62;80.74;100556.45;102325;1274;99182;-83
2024/02/14 01:58:43;;;;;;;19.20;9.50;;;;;;;4.58;80.90;100557.85;102321;1270;107973;-83
2024/02/14 02:01:10;;;;;;;14.30;9.40;;;;;;;4.53;81.16;100561.66;102216;1274;139174;-84
2024/02/14 02:03:37;;;;;;;15.40;9.50;;;;;;;4.52;81.39;100565.97;102328;1273;113193;-84
2024/02/14 02:06:06;;;;;;;15.00;9.80;;;;;;;4.52;81.62;100559.95;102153;1273;138613;-84
2024/02/14 02:08:34;;;;;;;15.30;10.10;;;;;;;4.50;81.55;100563.39;102233;1273;99230;-83
2024/02/14 02:11:01;;;;;;;22.00;11.20;;;;;;;4.45;81.58;100566.14;102310;1273;108046;-83
2024/02/14 02:13:28;;;;;;;15.20;9.90;;;;;;;4.39;81.67;100565.83;102105;1271;138088;-83
2024/02/14 02:15:56;;;;;;;18.40;9.70;;;;;;;4.34;81.98;100567.91;102412;1273;110811;-83
2024/02/14 02:18:25;;;;;;;14.90;9.50;;;;;;;4.28;81.95;100566.34;102582;1274;138919;-83
2024/02/14 02:20:53;;;;;;;16.60;8.80;;;;;;;4.25;82.22;100566.70;102168;1273;150692;-84
2024/02/14 02:23:21;;;;;;;18.40;9.70;;;;;;;4.23;82.26;100567.73;102182;1271;138096;-83
2024/02/14 02:25:50;;;;;;;17.00;10.10;;;;;;;4.25;82.62;100570.83;102475;1272;99065;-81
2024/02/14 02:28:17;;;;;;;16.80;9.90;;;;;;;4.27;82.69;100567.73;102359;1270;112214;-83
2024/02/14 02:30:46;;;;;;;19.90;9.90;;;;;;;4.26;82.63;100572.38;102180;1275;138252;-83
2024/02/14 02:33:13;;;;;;;18.40;10.40;;;;;;;4.25;82.70;100578.05;102315;1273;99068;-84
2024/02/14 02:35:45;;;;;;;18.80;11.10;;;;;;;4.19;82.62;100575.84;101932;1274;138641;-84
2024/02/14 02:38:12;;;;;;;20.30;11.00;;;;;;;4.13;82.83;100577.56;102737;1273;99230;-83
2024/02/14 02:40:39;;;;;;;21.50;10.80;;;;;;;4.07;82.97;100571.35;102417;1271;113222;-83
2024/02/14 02:43:06;;;;;;;19.50;11.10;;;;;;;4.04;82.95;100574.98;102206;1270;139271;-83
2024/02/14 02:45:33;;;;;;;20.00;11.70;;;;;;;4.02;83.38;100575.33;102299;1273;99055;-84
2024/02/14 02:48:02;;;;;;;20.20;11.20;;;;;;;4.00;83.43;100581.19;102174;1270;139942;-84
2024/02/14 02:50:30;;;;;;;18.80;11.70;;;;;;;3.98;83.41;100578.27;102320;1269;99093;-84
2024/02/14 02:52:57;;;;;;;19.20;11.80;;;;;;;4.00;83.69;100580.84;102338;1273;114406;-83
2024/02/14 02:55:26;;;;;;;19.30;11.80;;;;;;;4.02;83.79;100582.55;102274;1270;138403;-84
2024/02/14 02:57:53;;;;;;;20.40;12.50;;;;;;;4.01;83.76;100582.73;102384;1272;99762;-82
2024/02/14 03:00:21;;;;;;;18.70;12.10;;;;;;;3.99;83.74;100581.19;102259;1272;138484;-82
2024/02/14 03:02:48;;;;;;;19.10;12.40;;;;;;;3.94;83.84;100585.13;103651;1270;97292;-83
2024/02/14 03:05:18;;;;;;;22.30;12.10;;;;;;;3.89;83.93;100581.69;102711;1273;140270;-81
2024/02/14 03:07:49;;;;;;;19.10;12.20;;;;;;;3.89;84.37;100583.41;102350;1272;108674;-84
2024/02/14 03:10:18;;;;;;;17.80;11.10;;;;;;;3.85;84.43;100578.42;102366;1270;99188;-82
2024/02/14 03:12:47;;;;;;;20.20;11.60;;;;;;;3.88;84.30;100590.11;102566;1269;139093;-83
2024/02/14 03:15:15;;;;;;;20.00;11.70;;;;;;;3.90;84.61;100598.89;102345;1273;99293;-83
2024/02/14 03:17:42;;;;;;;20.40;12.70;;;;;;;3.92;84.56;100599.75;102118;1269;2002291;-83
2024/02/14 03:20:12;;;;;;;23.10;12.90;;;;;;;3.90;84.40;100606.80;102875;1269;107772;-82
2024/02/14 03:22:45;;;;;;;22.80;14.20;;;;;;;3.90;84.72;100607.15;103133;1270;99172;-83
2024/02/14 03:25:17;;;;;;;20.70;13.70;;;;;;;3.90;84.64;100608.17;99381;1269;2002872;-83
2024/02/14 03:27:45;;;;;;;20.50;13.40;;;;;;;3.88;84.71;100612.30;102604;1270;99181;-83
2024/02/14 03:30:16;;;;;;;21.40;13.50;;;;;;;3.83;84.57;100610.94;102229;1275;138782;-84
2024/02/14 03:32:44;;;;;;;27.30;14.10;;;;;;;3.77;84.69;100613.84;102649;1270;106948;-83
2024/02/14 03:35:13;;;;;;;24.10;14.10;;;;;;;3.68;84.57;100616.23;102426;1273;99131;-83
2024/02/14 03:37:41;;;;;;;23.70;14.00;;;;;;;3.59;84.93;100618.45;102292;1269;108337;-84
2024/02/14 03:40:11;;;;;;;24.50;13.40;;;;;;;3.53;85.29;100620.67;102415;1270;99294;-83
2024/02/14 03:42:39;;;;;;;21.90;13.30;;;;;;;3.48;85.17;100619.81;102489;1269;140734;-85
2024/02/14 03:45:08;;;;;;;25.40;13.60;;;;;;;3.44;85.67;100618.09;102784;1269;107689;-84
2024/02/14 03:47:39;;;;;;;24.70;13.80;;;;;;;3.44;86.04;100619.46;103080;1270;139309;-84
2024/02/14 03:50:09;;;;;;;27.00;14.20;;;;;;;3.47;85.86;100620.16;102349;1270;106350;-84
2024/02/14 03:52:36;;;;;;;24.50;15.20;;;;;;;3.48;86.17;100622.21;102748;1270;99152;-83
2024/02/14 03:55:04;;;;;;;23.20;15.00;;;;;;;3.46;86.08;100618.61;102313;1270;138552;-83
2024/02/14 03:57:33;;;;;;;25.50;15.40;;;;;;;3.42;86.13;100622.20;102458;1270;108025;-85
2024/02/14 04:00:02;;;;;;;27.50;15.20;;;;;;;3.38;86.39;100623.89;102420;1270;138233;-85
2024/02/14 04:02:37;;;;;;;21.10;13.80;;;;;;;3.36;86.30;100624.06;102423;1270;108332;-84
2024/02/14 04:05:09;;;;;;;21.90;13.40;;;;;;;3.29;86.63;100623.36;102381;1270;99139;-83
2024/02/14 04:07:37;;;;;;;21.80;14.10;;;;;;;3.22;86.41;100621.95;102368;1270;140229;-83
2024/02/14 04:10:05;;;;;;;23.00;13.70;;;;;;;3.21;86.88;100623.48;102362;1270;107401;-83
2024/02/14 04:12:32;;;;;;;26.00;14.30;;;;;;;3.21;86.93;100622.63;102664;1270;140130;-82
2024/02/14 04:15:00;;;;;;;22.30;13.00;;;;;;;3.22;87.06;100626.23;102341;1269;107510;-83
2024/02/14 04:17:27;;;;;;;25.10;13.70;;;;;;;3.22;87.24;100627.79;102270;1270;140200;-83
2024/02/14 04:19:54;;;;;;;24.20;13.80;;;;;;;3.20;87.25;100629.16;102397;1273;112528;-84
2024/02/14 04:22:21;;;;;;;22.10;13.10;;;;;;;3.18;87.17;100631.90;102315;1273;107805;-83
2024/02/14 04:24:48;;;;;;;21.60;14.20;;;;;;;3.15;87.28;100632.41;102269;1270;139334;-83
2024/02/14 04:27:15;;;;;;;19.80;12.50;;;;;;;3.10;87.48;100629.48;102360;1271;106367;-82
2024/02/14 04:29:46;;;;;;;21.50;14.00;;;;;;;3.10;87.49;100630.34;102244;1271;141145;-83
2024/02/14 04:32:14;;;;;;;24.70;13.80;;;;;;;3.09;87.83;100630.51;102422;1270;112261;-82
2024/02/14 04:34:41;;;;;;;21.70;13.80;;;;;;;3.07;87.70;100632.05;102873;1270;107702;-82
2024/02/14 04:37:12;;;;;;;23.00;13.70;;;;;;;3.04;87.91;100630.45;102266;1271;139311;-81
2024/02/14 04:39:39;;;;;;;22.80;14.20;;;;;;;3.02;87.72;100634.41;102446;1270;106961;-82
2024/02/14 04:42:07;;;;;;;22.00;13.90;;;;;;;3.01;87.97;100636.30;102270;1273;139021;-82
2024/02/14 04:44:35;;;;;;;26.90;14.30;;;;;;;3.00;88.10;100641.95;102386;1271;112160;-82
2024/02/14 04:47:02;;;;;;;23.30;14.40;;;;;;;2.99;88.08;100646.94;102362;1270;110098;-82
2024/02/14 04:49:29;;;;;;;23.60;14.40;;;;;;;2.98;87.98;100647.80;102607;1269;138780;-82
2024/02/14 04:51:57;;;;;;;22.60;14.90;;;;;;;2.97;88.04;100650.02;102399;1273;108475;-82
2024/02/14 04:54:25;;;;;;;25.50;14.20;;;;;;;2.94;88.13;100648.46;102268;1273;138040;-82
2024/02/14 04:56:52;;;;;;;23.70;14.70;;;;;;;2.91;88.42;100646.91;102397;1270;113065;-81
2024/02/14 04:59:24;;;;;;;27.00;14.80;;;;;;;2.88;88.02;100652.73;102583;1270;139149;-80
2024/02/14 05:01:51;;;;;;;25.20;14.70;;;;;;;2.87;88.32;100656.66;102334;1270;99154;-81
2024/02/14 05:04:18;;;;;;;22.80;14.70;;;;;;;2.85;88.37;100656.80;102392;1273;108122;-81
2024/02/14 05:06:45;;;;;;;20.90;14.20;;;;;;;2.81;88.34;100653.88;102315;1270;139037;-80
2024/02/14 05:09:14;;;;;;;24.10;14.10;;;;;;;2.79;88.43;100654.39;102399;1270;112292;-82
2024/02/14 05:11:41;;;;;;;23.40;14.50;;;;;;;2.78;88.53;100658.67;102243;1270;139289;-80
2024/02/14 05:14:09;;;;;;;23.10;14.40;;;;;;;2.78;88.36;100662.45;103007;1270;99774;-81
2024/02/14 05:16:36;;;;;;;23.10;13.70;;;;;;;2.78;88.53;100666.40;102360;1270;108089;-82
2024/02/14 05:19:03;;;;;;;22.80;13.90;;;;;;;2.76;88.66;100664.16;102236;1270;138953;-83
2024/02/14 05:21:30;;;;;;;22.90;14.00;;;;;;;2.76;88.64;100665.54;102387;1270;112620;-83
2024/02/14 05:23:58;;;;;;;21.10;13.10;;;;;;;2.77;88.60;100662.95;102212;1273;139079;-82
2024/02/14 05:26:25;;;;;;;22.80;13.20;;;;;;;2.78;88.51;100665.20;102378;1270;99074;-83
2024/02/14 05:28:52;;;;;;;22.70;13.20;;;;;;;2.78;88.51;100672.07;102349;1275;109288;-83
2024/02/14 05:31:19;;;;;;;23.90;13.20;;;;;;;2.76;88.48;100671.38;102320;1273;139071;-83
2024/02/14 05:33:46;;;;;;;22.80;13.70;;;;;;;2.74;88.44;100675.65;102345;1273;112031;-83
2024/02/14 05:36:14;;;;;;;22.60;13.40;;;;;;;2.71;88.51;100679.42;102268;1270;139004;-83
2024/02/14 05:38:41;;;;;;;22.00;13.20;;;;;;;2.67;88.55;100677.65;102426;1270;100864;-83
2024/02/14 05:41:08;;;;;;;23.70;14.10;;;;;;;2.67;88.71;100678.67;102437;1272;107219;-83
2024/02/14 05:43:35;;;;;;;24.00;12.40;;;;;;;2.69;88.75;100680.24;102290;1269;139045;-82
2024/02/14 05:46:02;;;;;;;21.30;12.90;;;;;;;2.67;88.78;100681.42;102424;1269;112824;-82
2024/02/14 05:48:29;;;;;;;23.30;13.60;;;;;;;2.65;88.71;100677.64;102299;1270;138940;-82
2024/02/14 05:50:57;;;;;;;22.80;12.90;;;;;;;2.62;88.57;100679.85;102407;1274;100501;-82
2024/02/14 05:53:24;;;;;;;24.70;13.80;;;;;;;2.63;88.70;100681.75;102216;1270;139458;-82
2024/02/14 05:55:51;;;;;;;21.20;13.10;;;;;;;2.64;88.72;100681.59;102400;1270;99284;-81
2024/02/14 05:58:19;;;;;;;21.30;13.40;;;;;;;2.66;88.59;100687.09;102446;1273;113395;-82
2024/02/14 06:00:46;;;;;;;22.50;13.50;;;;;;;2.68;88.57;100689.16;102256;1270;139387;-82
2024/02/14 06:03:13;;;;;;;22.00;12.10;;;;;;;2.71;88.57;100685.95;102161;1270;100953;-82
2024/02/14 06:05:40;;;;;;;21.10;12.70;;;;;;;2.75;88.41;100689.05;102153;1273;139935;-82
2024/02/14 06:08:09;;;;;;;20.40;11.60;;;;;;;2.77;88.37;100694.05;102276;1275;99166;-80
2024/02/14 06:10:38;;;;;;;20.30;12.60;;;;;;;2.81;88.40;100693.04;102418;1270;113167;-72
2024/02/14 06:13:06;;;;;;;18.10;12.50;;;;;;;2.86;88.27;100690.31;102171;1270;138568;-84
2024/02/14 06:15:33;;;;;;;27.00;13.30;;;;;;;2.95;88.37;100696.56;102547;1270;99828;-82
2024/02/14 06:18:00;;;;;;;20.80;14.20;;;;;;;3.04;87.98;100701.59;102081;1273;138311;-75
2024/02/14 06:20:27;;;;;;;20.50;12.50;;;;;;;3.13;87.91;100702.85;102270;1270;99213;-79
2024/02/14 06:22:54;;;;;;;25.10;12.40;;;;;;;3.24;87.75;100703.08;102257;1270;112196;-79
2024/02/14 06:25:31;;;;;;;19.40;12.20;;;;;;;3.42;87.59;100702.98;102486;1270;139067;-84
2024/02/14 06:27:58;;;;;;;22.70;12.40;;;;;;;3.64;87.61;100703.41;102364;1273;99284;-81
2024/02/14 06:30:25;;;;;;;20.20;12.80;;;;;;;3.86;86.61;100707.77;102181;1270;141585;-81
2024/02/14 06:33:00;;;;;;;20.80;12.10;;;;;;;4.08;86.03;100704.38;102315;1270;99175;-84
2024/02/14 06:35:28;;;;;;;21.30;12.40;;;;;;;4.33;85.19;100701.48;102237;1273;138951;-77
2024/02/14 06:37:56;;;;;;;19.30;10.90;;;;;;;4.54;84.67;100694.60;102234;1275;107580;-75
2024/02/14 06:40:30;;;;;;;19.90;12.00;;;;;;;4.79;83.77;100694.92;102361;1270;99191;-82
2024/02/14 06:42:59;;;;;;;24.20;13.30;;;;;;;5.02;83.27;100692.64;102191;1270;139354;-82
2024/02/14 06:45:27;;;;;;;20.00;12.20;;;;;;;5.24;82.36;100696.54;103544;1270;97246;-83
2024/02/14 06:47:54;;;;;;;18.10;12.10;;;;;;;5.38;82.18;100696.48;102429;1275;138611;-83
2024/02/14 06:50:25;;;;;;;22.20;13.30;;;;;;;5.46;81.50;100699.39;102312;1275;108112;-85
2024/02/14 06:52:52;;;;;;;24.00;13.00;;;;;;;5.54;80.96;100697.96;102565;1270;99169;-84
2024/02/14 06:55:19;;;;;;;20.10;12.60;;;;;;;5.62;80.72;100703.46;102289;1270;140686;-85
2024/02/14 06:57:46;;;;;;;21.20;12.10;;;;;;;5.76;80.47;100702.02;102296;1271;99650;-84
2024/02/14 07:00:15;;;;;;;18.20;12.20;;;;;;;5.96;80.21;100708.66;102204;1273;138886;-85
2024/02/14 07:02:43;;;;;;;21.40;12.50;;;;;;;6.14;79.76;100710.79;102563;1270;108230;-84
2024/02/14 07:05:14;;;;;;;19.90;12.10;;;;;;;6.38;79.44;100712.52;102412;1270;99848;-85
2024/02/14 07:07:41;;;;;;;19.60;12.00;;;;;;;6.73;79.03;100712.91;102406;1272;107758;-67
2024/02/14 07:10:10;;;;;;;21.20;12.30;;;;;;;7.30;79.38;100709.41;102270;1270;99182;-67
2024/02/14 07:12:37;;;;;;;29.10;13.40;;;;;;;7.92;79.36;100707.05;103515;1270;139485;-67
2024/02/14 07:15:06;;;;;;;18.20;12.90;;;;;;;8.58;78.87;100708.66;102495;1269;107002;-66
2024/02/14 07:17:33;;;;;;;18.90;12.00;;;;;;;8.98;77.08;100701.72;103414;1270;139432;-84
2024/02/14 07:20:01;;;;;;;18.10;13.20;;;;;;;9.21;75.57;100702.70;102877;1270;108233;-83
2024/02/14 07:22:30;;;;;;;18.10;11.70;;;;;;;9.29;74.28;100707.55;102369;1270;99180;-83
2024/02/14 07:24:57;;;;;;;20.30;13.40;;;;;;;9.27;72.47;100706.39;102180;1273;138234;-82
2024/02/14 07:27:25;;;;;;;20.50;12.80;;;;;;;9.26;71.65;100707.61;102301;1270;107355;-83
2024/02/14 07:29:52;;;;;;;15.50;11.60;;;;;;;9.30;70.96;100704.94;102230;1274;138599;-78
2024/02/14 07:32:21;;;;;;;18.80;12.30;;;;;;;9.44;69.82;100706.39;102329;1273;108404;-82
2024/02/14 07:34:49;;;;;;;20.80;12.60;;;;;;;9.54;69.14;100702.73;102352;1271;99256;-85
2024/02/14 07:37:18;;;;;;;18.10;12.60;;;;;;;9.81;69.58;100704.05;102295;1273;138875;-85
2024/02/14 07:39:46;;;;;;;17.20;12.20;;;;;;;10.14;68.70;100706.79;102743;1273;106635;-85
2024/02/14 07:42:13;;;;;;;18.30;12.20;;;;;;;10.31;67.33;100710.95;102713;1272;138756;-85
2024/02/14 07:44:41;;;;;;;18.90;12.20;;;;;;;10.48;67.89;100706.88;102383;1270;106114;-86
2024/02/14 07:47:08;;;;;;;19.20;12.90;;;;;;;10.77;67.41;100706.15;103477;1269;97041;-84
2024/02/14 07:49:35;;;;;;;20.00;11.90;;;;;;;11.06;66.55;100711.48;102218;1270;138771;-83
2024/02/14 07:52:02;;;;;;;19.30;11.60;;;;;;;11.29;66.21;100709.12;102218;1276;106895;-83
2024/02/14 07:54:29;;;;;;;18.90;12.40;;;;;;;11.59;66.16;100709.98;102136;1274;139036;-83
2024/02/14 07:56:56;;;;;;;16.00;11.70;;;;;;;11.95;65.40;100712.46;102256;1270;107732;-85
2024/02/14 07:59:23;;;;;;;16.60;11.30;;;;;;;12.36;64.96;100711.69;102759;1270;138912;-82
2024/02/14 08:01:50;;;;;;;16.00;11.90;;;;;;;12.62;63.77;100704.03;102113;1270;115964;-84
2024/02/14 08:04:17;;;;;;;17.90;11.60;;;;;;;12.92;63.83;100698.81;102203;1276;107666;-84
2024/02/14 08:06:45;;;;;;;18.90;12.00;;;;;;;13.37;63.42;100698.14;102230;1275;138626;-83
2024/02/14 08:09:12;;;;;;;20.10;11.20;;;;;;;13.76;62.87;100698.25;102367;1275;108598;-83
2024/02/14 08:11:39;;;;;;;14.10;9.90;;;;;;;14.16;62.28;100697.03;102138;1275;138860;-82
2024/02/14 08:14:06;;;;;;;14.20;11.20;;;;;;;14.57;61.16;100699.41;102305;1269;113398;-83
2024/02/14 08:16:34;;;;;;;14.80;11.00;;;;;;;14.85;60.10;100694.76;102194;1270;108496;-82
2024/02/14 08:19:01;;;;;;;17.60;11.30;;;;;;;15.14;59.31;100698.56;102232;1270;139226;-82
2024/02/14 08:21:28;;;;;;;20.90;11.80;;;;;;;15.52;58.57;100696.17;102307;1273;107501;-81
2024/02/14 08:23:58;;;;;;;18.40;11.60;;;;;;;15.94;57.52;100696.73;102562;1270;138798;-80
2024/02/14 08:26:27;;;;;;;18.20;12.40;;;;;;;16.41;56.68;100694.57;102403;1274;112009;-82
2024/02/14 08:28:55;;;;;;;16.40;11.80;;;;;;;16.91;55.30;100684.73;102256;1274;108289;-77
2024/02/14 08:31:23;;;;;;;19.90;11.90;;;;;;;17.37;53.68;100683.91;102181;1270;138990;-79
2024/02/14 08:33:50;;;;;;;20.20;11.80;;;;;;;17.80;52.62;100683.52;102267;1270;108727;-85
2024/02/14 08:36:18;;;;;;;14.00;11.20;;;;;;;18.36;52.15;100683.69;102205;1270;139002;-86
2024/02/14 08:38:47;;;;;;;15.20;11.60;;;;;;;18.97;51.81;100683.67;102330;1270;113009;-85
2024/02/14 08:41:15;;;;;;;19.80;12.20;;;;;;;19.42;50.91;100683.06;102223;1270;108426;-83
2024/02/14 08:43:42;;;;;;;19.30;11.60;;;;;;;19.73;49.50;100681.45;102289;1270;99831;-81
2024/02/14 08:46:13;;;;;;;15.20;11.00;;;;;;;19.91;49.03;100681.53;102251;1276;108716;-80
2024/02/14 08:48:45;;;;;;;16.50;11.70;;;;;;;20.31;48.69;100681.95;101994;1274;138818;-79
2024/02/14 08:51:14;;;;;;;24.10;11.50;;;;;;;20.77;47.73;100676.44;102206;1270;112800;-81
2024/02/14 08:53:43;;;;;;;14.40;9.60;;;;;;;21.19;47.49;100674.59;102049;1270;138849;-85
2024/02/14 08:56:11;;;;;;;15.30;10.00;;;;;;;21.69;46.97;100678.29;102345;1270;99263;-80
2024/02/14 08:58:38;;;;;;;13.40;8.70;;;;;;;22.12;46.06;100679.12;102001;1275;108275;-82
2024/02/14 09:01:05;;;;;;;12.90;8.10;;;;;;;22.40;45.48;100682.22;102861;1270;138509;-84
2024/02/14 09:03:43;;;;;;;13.20;8.10;;;;;;;22.73;44.74;100680.42;102284;1270;113457;-87
2024/02/14 09:06:10;;;;;;;12.20;8.00;;;;;;;22.76;43.90;100680.00;102520;1270;138501;-85
2024/02/14 09:08:38;;;;;;;13.90;8.60;;;;;;;22.72;43.78;100679.74;102788;1270;99231;-86
2024/02/14 09:11:05;;;;;;;13.00;8.30;;;;;;;22.74;43.14;100679.58;102205;1270;107826;-85
2024/02/14 09:13:32;;;;;;;10.40;7.60;;;;;;;22.81;42.59;100682.84;102039;1270;139192;-84
2024/02/14 09:15:59;;;;;;;12.20;7.70;;;;;;;22.75;41.79;100676.00;102285;1270;111752;-82
2024/02/14 09:18:27;;;;;;;13.00;7.70;;;;;;;22.64;41.54;100679.17;102111;1276;138512;-84
2024/02/14 09:20:56;;;;;;;14.30;7.70;;;;;;;22.65;41.97;100674.77;102283;1270;99169;-82
2024/02/14 09:23:23;;;;;;;10.80;7.10;;;;;;;22.76;41.42;100672.21;102352;1270;138781;-79
2024/02/14 09:25:51;;;;;;;13.80;7.50;;;;;;;22.55;41.09;100669.15;102332;1270;99778;-83
2024/02/14 09:28:18;;;;;;;10.30;7.00;;;;;;;22.44;40.86;100666.44;102259;1270;113474;-71
2024/02/14 09:30:46;;;;;;;9.60;7.10;;;;;;;22.55;41.00;100668.14;102208;1270;138640;-79
2024/02/14 09:33:13;;;;;;;8.80;6.70;;;;;;;22.73;40.86;100666.96;102256;1275;99724;-76
2024/02/14 09:35:44;;;;;;;10.30;7.10;;;;;;;22.43;39.98;100667.23;102166;1276;138912;-81
2024/02/14 09:38:12;;;;;;;8.60;6.40;;;;;;;22.20;39.90;100668.29;102174;1270;99175;-80
2024/02/14 09:40:39;;;;;;;9.50;6.60;;;;;;;21.75;38.48;100669.02;102235;1270;111993;-74
2024/02/14 09:43:17;;;;;;;12.40;7.30;;;;;;;21.13;38.88;100668.27;102107;1270;139224;-77
2024/02/14 09:45:45;;;;;;;9.40;6.30;;;;;;;20.96;39.48;100669.12;102527;1270;99216;-77
2024/02/14 09:48:13;;;;;;;10.70;6.50;;;;;;;20.93;39.22;100672.34;102338;1267;139343;-74
2024/02/14 09:50:41;;;;;;;11.50;6.10;;;;;;;20.67;39.06;100672.50;102424;1273;99197;-79
2024/02/14 09:53:10;;;;;;;11.70;5.90;;;;;;;20.69;39.92;100669.73;102488;1267;113193;-77
2024/02/14 09:55:38;;;;;;;9.20;5.80;;;;;;;20.84;39.53;100671.71;102346;1272;138542;-76
2024/02/14 09:58:06;;;;;;;8.90;5.30;;;;;;;20.96;39.57;100662.25;102473;1267;99190;-75
2024/02/14 10:00:35;;;;;;;9.90;5.80;;;;;;;21.06;39.54;100667.68;102464;1268;138317;-77
2024/02/14 10:03:02;;;;;;;9.10;5.80;;;;;;;21.17;39.00;100665.56;102445;1268;99046;-77
2024/02/14 10:05:29;;;;;;;8.60;5.50;;;;;;;20.76;37.65;100668.02;102381;1268;139050;-77
2024/02/14 10:07:59;;;;;;;6.80;4.70;;;;;;;20.48;38.75;100665.15;102428;1273;108240;-77
2024/02/14 10:10:27;;;;;;;9.30;5.40;;;;;;;20.61;39.22;100659.11;102426;1268;99458;-76
2024/02/14 10:12:56;;;;;;;7.80;4.60;;;;;;;20.70;38.66;100659.61;102520;1267;138046;-77
2024/02/14 10:15:24;;;;;;;7.90;4.90;;;;;;;20.59;38.56;100661.22;102897;1273;99210;-79
2024/02/14 10:17:53;;;;;;;10.00;4.50;;;;;;;20.38;38.64;100665.74;103184;1272;138365;-78
2024/02/14 10:20:21;;;;;;;7.80;3.90;;;;;;;20.35;38.57;100665.95;102285;1273;107370;-77
2024/02/14 10:22:48;;;;;;;7.20;3.70;;;;;;;20.28;38.32;100664.66;103248;1266;99280;-78
2024/02/14 10:25:15;;;;;;;5.60;3.20;;;;;;;20.30;38.24;100664.52;102481;1267;138421;-77
2024/02/14 10:27:42;;;;;;;8.40;3.50;;;;;;;19.94;37.38;100660.86;103513;1267;99153;-77
2024/02/14 10:30:11;;;;;;;6.10;3.50;;;;;;;19.42;37.62;100659.60;103480;1270;138738;-80
2024/02/14 10:32:40;;;;;;;9.00;4.00;;;;;;;19.37;37.21;100658.29;102634;1268;107623;-79
2024/02/14 10:35:11;;;;;;;7.40;3.70;;;;;;;18.98;38.13;100659.44;103033;1267;100681;-81
2024/02/14 10:37:38;;;;;;;9.40;4.40;;;;;;;18.89;38.54;100657.19;103649;1267;138701;-78
2024/02/14 10:40:08;;;;;;;7.60;4.40;;;;;;;18.79;38.92;100647.56;102391;1267;99281;-79
2024/02/14 10:42:36;;;;;;;6.60;3.80;;;;;;;18.46;38.62;100651.58;102620;1268;138084;-80
2024/02/14 10:45:05;;;;;;;6.90;3.80;;;;;;;18.29;38.69;100652.42;102464;1266;108301;-79
2024/02/14 10:47:35;;;;;;;6.50;3.80;;;;;;;18.02;38.92;100651.14;103107;1271;139287;-79
2024/02/14 10:50:06;;;;;;;5.10;3.40;;;;;;;17.75;39.13;100648.08;102938;1272;107708;-79
2024/02/14 10:52:36;;;;;;;9.80;3.30;;;;;;;17.79;39.46;100639.08;102893;1272;97540;-74
2024/02/14 10:55:05;;;;;;;6.70;3.30;;;;;;;17.89;39.08;100637.66;102337;1273;138248;-67
2024/02/14 10:57:33;;;;;;;10.60;3.20;;;;;;;17.71;38.15;100640.77;103734;1267;107650;-66
2024/02/14 11:00:03;;;;;;;8.50;3.00;;;;;;;17.16;37.98;100640.94;103629;1267;138749;-66
2024/02/14 11:02:32;;;;;;;8.00;3.10;;;;;;;16.91;39.58;100636.95;103068;1267;108021;-64
2024/02/14 11:05:00;;;;;;;6.60;3.20;;;;;;;17.01;40.25;100629.75;102423;1267;99100;-65
2024/02/14 11:07:30;;;;;;;4.80;2.80;;;;;;;17.13;40.40;100629.33;102320;1268;139143;-65